createdAt,value
2022-10-19T00:01:12.977Z,9.61
2022-10-19T00:04:15.480Z,9.54
2022-10-19T00:07:17.696Z,9.50
2022-10-19T00:10:21.987Z,9.47
2022-10-19T00:13:24.290Z,9.44
2022-10-19T00:16:28.150Z,9.39
2022-10-19T00:19:30.424Z,9.31
2022-10-19T00:22:33.170Z,9.25
2022-10-19T00:25:36.969Z,9.21
2022-10-19T00:28:40.797Z,9.15
2022-10-19T00:31:43.330Z,9.10
2022-10-19T00:34:45.887Z,9.07
2022-10-19T00:37:48.238Z,9.07
2022-10-19T00:40:52.712Z,9.27
2022-10-19T00:43:54.945Z,9.19
2022-10-19T00:47:03.501Z,9.14
2022-10-19T00:50:05.992Z,9.12
2022-10-19T00:53:08.930Z,9.25
2022-10-19T00:56:14.269Z,9.24
2022-10-19T00:59:18.828Z,9.18
2022-10-19T01:02:21.140Z,9.22
2022-10-19T01:05:23.634Z,9.23
2022-10-19T01:08:26.049Z,9.25
2022-10-19T01:11:39.705Z,9.34
2022-10-19T01:14:54.027Z,9.49
2022-10-19T01:17:59.396Z,9.63
2022-10-19T01:21:28.297Z,9.71
2022-10-19T01:24:48.933Z,9.85
2022-10-19T01:27:51.200Z,9.93
2022-10-19T01:30:58.954Z,9.98
2022-10-19T01:34:22.455Z,10.00
2022-10-19T01:37:24.996Z,10.00
2022-10-19T01:40:33.309Z,10.03
2022-10-19T01:43:41.806Z,10.04
2022-10-19T01:46:46.575Z,10.06
2022-10-19T01:50:21.251Z,10.19
2022-10-19T01:53:24.653Z,10.24
2022-10-19T01:56:28.294Z,10.26
2022-10-19T01:59:32.543Z,10.35
2022-10-19T02:02:36.898Z,10.35
2022-10-19T02:05:40.588Z,10.33
2022-10-19T02:08:50.879Z,10.27
2022-10-19T02:11:57.267Z,10.13
2022-10-19T02:15:02.886Z,10.03
2022-10-19T02:18:07.099Z,9.98
2022-10-19T02:21:09.557Z,10.03
2022-10-19T02:24:13.238Z,10.00
2022-10-19T02:27:15.547Z,9.97
2022-10-19T02:30:20.293Z,9.98
2022-10-19T02:33:22.776Z,10.02
2022-10-19T02:36:25.284Z,10.05
2022-10-19T02:39:27.615Z,10.06
2022-10-19T02:42:40.271Z,10.19
2022-10-19T02:45:48.447Z,10.47
2022-10-19T02:48:51.730Z,10.54
2022-10-19T02:52:01.163Z,10.62
2022-10-19T02:55:04.031Z,10.57
2022-10-19T02:58:06.331Z,10.49
2022-10-19T03:01:09.009Z,10.41
2022-10-19T03:04:11.373Z,10.35
2022-10-19T03:07:15.085Z,10.35
2022-10-19T03:10:17.763Z,10.46
2022-10-19T03:13:20.190Z,10.82
2022-10-19T03:16:22.428Z,11.01
2022-10-19T03:19:25.070Z,11.44
2022-10-19T03:22:27.325Z,12.02
2022-10-19T03:25:29.838Z,12.30
2022-10-19T03:28:32.615Z,12.44
2022-10-19T03:31:35.694Z,12.57
2022-10-19T03:34:37.969Z,12.66
2022-10-19T03:37:40.443Z,12.65
2022-10-19T03:40:44.129Z,12.64
2022-10-19T03:43:46.968Z,12.69
2022-10-19T03:46:49.201Z,12.64
2022-10-19T03:49:51.878Z,12.60
2022-10-19T03:52:54.942Z,12.55
2022-10-19T03:56:01.774Z,12.53
2022-10-19T03:59:04.950Z,12.53
2022-10-19T04:02:07.625Z,12.53
2022-10-19T04:05:10.419Z,12.50
2022-10-19T04:08:12.622Z,12.52
2022-10-19T04:11:21.259Z,12.40
2022-10-19T04:14:32.384Z,12.36
2022-10-19T04:17:36.232Z,12.25
2022-10-19T04:20:43.830Z,12.19
2022-10-19T04:23:46.448Z,12.20
2022-10-19T04:26:52.643Z,12.18
2022-10-19T04:29:55.112Z,12.12
2022-10-19T04:32:57.315Z,12.13
2022-10-19T04:36:04.525Z,11.95
2022-10-19T04:39:06.830Z,11.91
2022-10-19T04:42:09.286Z,11.89
2022-10-19T04:45:11.483Z,11.85
2022-10-19T04:48:15.144Z,11.90
2022-10-19T04:51:18.450Z,11.83
2022-10-19T04:54:21.019Z,11.88
2022-10-19T04:57:23.264Z,11.90
2022-10-19T05:00:26.773Z,11.87
2022-10-19T05:03:29.171Z,11.82
2022-10-19T05:06:31.951Z,11.77
2022-10-19T05:09:34.155Z,11.74
2022-10-19T05:12:36.657Z,11.65
2022-10-19T05:15:38.914Z,11.54
2022-10-19T05:18:41.618Z,11.44
2022-10-19T05:21:43.798Z,11.39
2022-10-19T05:24:46.304Z,11.36
2022-10-19T05:27:52.625Z,11.18
2022-10-19T05:31:28.568Z,11.23
2022-10-19T05:34:30.768Z,11.22
2022-10-19T05:37:33.446Z,11.29
2022-10-19T05:40:36.239Z,11.30
2022-10-19T05:43:39.485Z,11.34
2022-10-19T05:46:41.819Z,11.40
2022-10-19T05:49:44.337Z,11.40
2022-10-19T05:52:46.616Z,11.47
2022-10-19T05:55:49.168Z,11.49
2022-10-19T05:58:51.815Z,11.48
2022-10-19T06:01:54.293Z,11.57
2022-10-19T06:04:56.816Z,11.58
2022-10-19T06:07:59.079Z,11.63
2022-10-19T06:11:09.360Z,11.69
2022-10-19T06:14:12.893Z,11.77
2022-10-19T06:17:16.163Z,11.78
2022-10-19T06:20:20.063Z,11.93
2022-10-19T06:23:22.585Z,12.10
2022-10-19T06:26:25.537Z,12.15
2022-10-19T06:29:28.418Z,12.24
2022-10-19T06:32:30.897Z,12.35
2022-10-19T06:35:33.802Z,12.41
2022-10-19T06:38:36.293Z,12.56
2022-10-19T06:41:38.778Z,12.66
2022-10-19T06:44:44.164Z,12.86
2022-10-19T06:51:00.606Z,13.19
2022-10-19T06:54:03.213Z,13.37
2022-10-19T06:57:05.477Z,13.50
2022-10-19T07:00:09.170Z,13.50
2022-10-19T07:03:11.542Z,13.55
2022-10-19T07:06:14.509Z,13.64
2022-10-19T07:09:16.922Z,13.87
2022-10-19T07:12:19.666Z,13.89
2022-10-19T07:15:21.954Z,14.07
2022-10-19T07:18:24.818Z,14.34
2022-10-19T07:21:27.135Z,14.47
2022-10-19T07:24:29.687Z,14.60
2022-10-19T07:27:37.374Z,14.72
2022-10-19T07:30:41.958Z,14.84
2022-10-19T07:33:44.849Z,14.93
2022-10-19T07:36:48.195Z,15.00
2022-10-19T07:39:50.633Z,14.98
2022-10-19T07:42:53.509Z,14.98
2022-10-19T07:46:03.106Z,14.92
2022-10-19T07:49:06.997Z,14.89
2022-10-19T07:52:09.363Z,15.03
2022-10-19T07:55:11.953Z,15.12
2022-10-19T07:58:14.500Z,15.24
2022-10-19T08:01:18.761Z,15.35
2022-10-19T08:07:43.447Z,15.32
2022-10-19T08:10:50.243Z,15.39
2022-10-19T08:13:53.312Z,15.51
2022-10-19T08:16:55.867Z,15.57
2022-10-19T08:19:58.077Z,15.78
2022-10-19T08:23:02.095Z,15.79
2022-10-19T08:26:04.416Z,15.89
2022-10-19T08:29:17.828Z,16.11
2022-10-19T08:32:20.250Z,16.27
2022-10-19T08:35:22.861Z,16.27
2022-10-19T08:38:25.279Z,16.37
2022-10-19T08:41:54.329Z,16.50
2022-10-19T08:44:56.547Z,16.59
2022-10-19T08:48:18.326Z,16.78
2022-10-19T08:51:21.018Z,16.92
2022-10-19T08:54:24.755Z,16.94
2022-10-19T08:57:36.667Z,17.11
2022-10-19T09:00:47.398Z,17.20
2022-10-19T09:04:04.376Z,17.38
2022-10-19T09:07:10.021Z,17.58
2022-10-19T09:10:25.507Z,17.85
2022-10-19T09:13:41.723Z,17.96
2022-10-19T09:16:59.931Z,18.02
2022-10-19T09:20:16.692Z,18.13
2022-10-19T09:23:21.810Z,18.15
2022-10-19T09:26:36.706Z,18.26
2022-10-19T09:29:42.099Z,18.36
2022-10-19T09:32:45.005Z,18.44
2022-10-19T09:35:48.121Z,18.31
2022-10-19T09:38:51.445Z,18.68
2022-10-19T09:41:57.972Z,18.78
2022-10-19T09:45:01.909Z,18.83
2022-10-19T09:48:14.079Z,18.56
2022-10-19T09:51:17.124Z,18.47
2022-10-19T09:54:23.349Z,18.53
2022-10-19T09:57:25.983Z,18.79
2022-10-19T10:00:32.247Z,19.07
2022-10-19T10:03:39.336Z,19.37
2022-10-19T10:06:42.893Z,19.59
2022-10-19T10:09:45.761Z,19.52
2022-10-19T10:12:48.096Z,19.57
2022-10-19T10:15:54.732Z,19.48
2022-10-19T10:18:59.416Z,19.84
2022-10-19T10:22:02.955Z,20.16
2022-10-19T10:25:12.259Z,20.37
2022-10-19T10:28:22.380Z,20.59
2022-10-19T10:31:26.365Z,20.67
2022-10-19T10:34:37.951Z,20.44
2022-10-19T10:37:48.082Z,19.96
2022-10-19T10:41:01.244Z,19.74
2022-10-19T10:44:07.203Z,19.60
2022-10-19T10:47:13.602Z,19.58
2022-10-19T10:50:21.168Z,19.60
2022-10-19T10:53:35.733Z,19.49
2022-10-19T10:56:40.858Z,19.44
2022-10-19T10:59:50.285Z,19.73
2022-10-19T11:03:04.537Z,19.74
2022-10-19T11:06:08.335Z,19.86
2022-10-19T11:09:17.653Z,19.83
2022-10-19T11:12:29.519Z,19.81
2022-10-19T11:15:46.836Z,19.67
2022-10-19T11:19:00.651Z,19.60
2022-10-19T11:22:09.326Z,19.52
2022-10-19T11:25:21.203Z,19.45
2022-10-19T11:28:32.566Z,19.39
2022-10-19T11:31:51.283Z,19.34
2022-10-19T11:35:19.630Z,19.29
2022-10-19T11:38:31.121Z,19.23
2022-10-19T11:41:39.915Z,19.08
2022-10-19T11:44:51.729Z,18.90
2022-10-19T11:48:03.545Z,18.83
2022-10-19T11:51:21.070Z,18.96
2022-10-19T11:54:30.407Z,19.05
2022-10-19T11:57:44.987Z,19.05
2022-10-19T12:01:00.380Z,19.04
2022-10-19T12:04:12.003Z,19.05
2022-10-19T12:07:20.342Z,19.00
2022-10-19T12:10:42.727Z,18.97
2022-10-19T12:13:50.865Z,18.75
2022-10-19T12:16:55.402Z,18.65
2022-10-19T12:20:03.404Z,18.72
2022-10-19T12:23:24.805Z,18.88
2022-10-19T12:26:29.868Z,18.82
2022-10-19T12:29:34.120Z,18.69
2022-10-19T12:33:02.750Z,18.81
2022-10-19T12:36:17.593Z,18.63
2022-10-19T12:39:39.258Z,18.57
2022-10-19T12:42:51.369Z,18.50
2022-10-19T12:46:13.859Z,18.54
2022-10-19T12:49:28.830Z,18.50
2022-10-19T12:52:34.620Z,18.45
2022-10-19T12:55:38.765Z,18.51
2022-10-19T12:58:46.720Z,18.58
2022-10-19T13:01:51.173Z,18.60
2022-10-19T13:04:54.067Z,18.61
2022-10-19T13:07:56.760Z,18.69
2022-10-19T13:11:07.777Z,18.77
2022-10-19T13:14:19.463Z,18.63
2022-10-19T13:17:34.599Z,18.55
2022-10-19T13:23:46.665Z,18.39
2022-10-19T13:27:09.122Z,18.34
2022-10-19T13:30:31.959Z,18.28
2022-10-19T13:33:35.084Z,18.19
2022-10-19T13:36:40.288Z,18.17
2022-10-19T13:39:42.832Z,18.11
2022-10-19T13:42:45.189Z,17.98
2022-10-19T13:46:02.751Z,17.95
2022-10-19T13:49:18.327Z,18.01
2022-10-19T13:52:20.780Z,18.01
2022-10-19T13:55:46.465Z,17.96
2022-10-19T13:59:09.806Z,17.90
2022-10-19T14:02:30.391Z,17.89
2022-10-19T14:05:53.657Z,17.90
2022-10-19T14:09:05.289Z,17.88
2022-10-19T14:12:12.039Z,17.76
2022-10-19T14:15:20.968Z,17.68
2022-10-19T14:18:30.940Z,17.72
2022-10-19T14:21:34.511Z,17.62
2022-10-19T14:24:37.314Z,17.49
2022-10-19T14:27:39.549Z,17.43
2022-10-19T14:30:43.289Z,17.39
2022-10-19T14:33:47.935Z,17.30
2022-10-19T14:36:51.398Z,17.21
2022-10-19T14:39:58.253Z,16.97
2022-10-19T14:43:01.319Z,16.90
2022-10-19T14:46:06.489Z,16.83
2022-10-19T14:49:11.147Z,16.77
2022-10-19T14:52:17.694Z,16.74
2022-10-19T14:55:21.100Z,16.71
2022-10-19T14:58:24.944Z,16.64
2022-10-19T15:01:29.293Z,16.53
2022-10-19T15:04:34.344Z,16.41
2022-10-19T15:07:38.194Z,16.30
2022-10-19T15:10:42.869Z,16.13
2022-10-19T15:13:45.590Z,16.05
2022-10-19T15:16:58.521Z,15.97
2022-10-19T15:20:16.759Z,15.93
2022-10-19T15:23:34.262Z,15.87
2022-10-19T15:26:37.932Z,15.73
2022-10-19T15:29:40.350Z,15.62
2022-10-19T15:32:43.271Z,15.48
2022-10-19T15:35:45.646Z,15.37
2022-10-19T15:39:06.117Z,15.34
2022-10-19T15:42:22.957Z,15.22
2022-10-19T15:45:36.222Z,15.12
2022-10-19T15:48:41.609Z,15.00
2022-10-19T15:51:47.596Z,15.03
2022-10-19T15:54:50.907Z,14.99
2022-10-19T15:57:58.475Z,14.95
2022-10-19T16:01:01.945Z,14.95
2022-10-19T16:04:04.569Z,14.98
2022-10-19T16:07:07.183Z,14.83
2022-10-19T16:10:17.894Z,14.70
2022-10-19T16:13:20.381Z,14.58
2022-10-19T16:16:27.656Z,14.54
2022-10-19T16:19:31.624Z,14.49
2022-10-19T16:22:35.436Z,14.31
2022-10-19T16:25:37.910Z,14.27
2022-10-19T16:28:40.878Z,14.18
2022-10-19T16:31:43.346Z,14.24
2022-10-19T16:34:46.357Z,14.13
2022-10-19T16:37:48.840Z,14.12
2022-10-19T16:40:52.309Z,14.10
2022-10-19T16:43:55.531Z,14.07
2022-10-19T16:46:58.490Z,14.04
2022-10-19T16:50:02.334Z,13.96
2022-10-19T16:53:06.727Z,13.84
2022-10-19T16:56:10.710Z,13.74
2022-10-19T16:59:15.568Z,13.54
2022-10-19T17:02:18.515Z,13.50
2022-10-19T17:05:22.424Z,13.53
2022-10-19T17:08:36.608Z,13.40
2022-10-19T17:11:42.072Z,13.34
2022-10-19T17:14:44.552Z,13.31
2022-10-19T17:17:47.809Z,13.26
2022-10-19T17:20:51.414Z,13.21
2022-10-19T17:23:56.052Z,13.13
2022-10-19T17:27:00.556Z,13.07
2022-10-19T17:30:03.669Z,13.05
2022-10-19T17:33:06.473Z,12.96
2022-10-19T17:36:10.961Z,12.89
2022-10-19T17:39:18.599Z,12.84
2022-10-19T17:42:21.576Z,12.79
2022-10-19T17:45:25.192Z,12.84
2022-10-19T17:48:28.046Z,12.71
2022-10-19T17:51:31.620Z,12.65
2022-10-19T17:54:43.481Z,12.59
2022-10-19T17:57:56.961Z,12.47
2022-10-19T18:01:00.954Z,12.45
2022-10-19T18:04:04.180Z,12.43
2022-10-19T18:07:06.915Z,12.37
2022-10-19T18:10:10.265Z,12.20
2022-10-19T18:13:15.916Z,12.10
2022-10-19T18:16:21.601Z,12.10
2022-10-19T18:19:25.413Z,12.16
2022-10-19T18:22:31.347Z,12.07
2022-10-19T18:25:53.498Z,11.85
2022-10-19T18:28:57.931Z,11.68
2022-10-19T18:32:01.523Z,11.75
2022-10-19T18:35:05.255Z,11.71
2022-10-19T18:38:08.963Z,11.64
2022-10-19T18:44:14.676Z,11.52
2022-10-19T18:47:17.479Z,11.33
2022-10-19T18:50:20.805Z,11.10
2022-10-19T18:53:24.256Z,10.95
2022-10-19T18:56:26.954Z,10.89
2022-10-19T18:59:29.830Z,10.77
2022-10-19T19:02:46.581Z,10.70
2022-10-19T19:05:50.421Z,10.65
2022-10-19T19:08:57.238Z,10.66
2022-10-19T19:12:00.170Z,10.55
2022-10-19T19:15:02.927Z,10.38
2022-10-19T19:18:05.815Z,10.38
2022-10-19T19:21:18.342Z,10.47
2022-10-19T19:24:22.092Z,10.53
2022-10-19T19:27:29.453Z,10.68
2022-10-19T19:30:39.941Z,10.68
2022-10-19T19:33:43.315Z,10.50
2022-10-19T19:36:48.507Z,10.29
2022-10-19T19:39:52.157Z,10.14
2022-10-19T19:42:55.777Z,10.08
2022-10-19T19:46:01.934Z,10.13
2022-10-19T19:49:07.735Z,10.21
2022-10-19T19:52:10.318Z,10.28
2022-10-19T19:55:13.173Z,10.16
2022-10-19T19:58:16.963Z,9.98
2022-10-19T20:01:20.779Z,9.91
2022-10-19T20:04:23.581Z,9.81
2022-10-19T20:07:27.066Z,9.72
2022-10-19T20:10:30.652Z,9.72
2022-10-19T20:13:34.457Z,9.71
2022-10-19T20:16:37.476Z,9.84
2022-10-19T20:19:40.086Z,10.09
2022-10-19T20:22:45.434Z,10.08
2022-10-19T20:25:48.039Z,9.91
2022-10-19T20:28:52.777Z,9.83
2022-10-19T20:31:55.789Z,9.87
2022-10-19T20:34:58.623Z,9.86
2022-10-19T20:38:01.212Z,9.79
2022-10-19T20:41:07.801Z,9.80
2022-10-19T20:44:11.146Z,9.82
2022-10-19T20:47:14.069Z,9.75
2022-10-19T20:50:20.574Z,9.75
2022-10-19T20:53:24.711Z,9.68
2022-10-19T20:56:29.000Z,9.60
2022-10-19T20:59:33.287Z,9.67
2022-10-19T21:02:35.908Z,9.74
2022-10-19T21:05:38.827Z,9.75
2022-10-19T21:08:41.493Z,9.74
2022-10-19T21:11:44.785Z,9.64
2022-10-19T21:14:46.974Z,9.59
2022-10-19T21:17:49.465Z,9.66
2022-10-19T21:20:52.023Z,9.49
2022-10-19T21:24:04.453Z,9.41
2022-10-19T21:27:07.568Z,9.41
2022-10-19T21:30:10.494Z,9.29
2022-10-19T21:33:12.723Z,9.16
2022-10-19T21:36:15.425Z,9.15
2022-10-19T21:39:18.087Z,9.09
2022-10-19T21:42:20.584Z,9.11
2022-10-19T21:45:30.381Z,9.11
2022-10-19T21:48:34.056Z,9.07
2022-10-19T21:51:39.219Z,9.01
2022-10-19T21:54:41.827Z,9.01
2022-10-19T21:57:44.009Z,9.03
2022-10-19T22:00:47.288Z,9.03
2022-10-19T22:03:49.960Z,9.03
2022-10-19T22:06:52.158Z,8.99
2022-10-19T22:09:55.014Z,9.03
2022-10-19T22:12:57.435Z,9.06
2022-10-19T22:16:10.980Z,9.10
2022-10-19T22:19:13.689Z,9.01
2022-10-19T22:22:16.639Z,8.93
2022-10-19T22:25:18.926Z,8.85
2022-10-19T22:28:21.491Z,8.76
2022-10-19T22:31:24.380Z,8.70
2022-10-19T22:34:26.864Z,8.61
2022-10-19T22:37:29.075Z,8.54
2022-10-19T22:40:33.362Z,8.52
2022-10-19T22:43:35.817Z,8.62
2022-10-19T22:46:38.392Z,8.64
2022-10-19T22:49:40.584Z,8.65
2022-10-19T22:52:43.117Z,8.60
2022-10-19T22:55:45.400Z,8.44
2022-10-19T22:58:48.060Z,8.50
2022-10-19T23:01:50.630Z,8.46
2022-10-19T23:04:53.222Z,8.40
2022-10-19T23:07:55.495Z,8.35
2022-10-19T23:10:58.166Z,8.25
2022-10-19T23:14:00.433Z,8.23
2022-10-19T23:17:03.009Z,8.12
2022-10-19T23:20:06.020Z,8.04
2022-10-19T23:23:09.136Z,7.96
2022-10-19T23:26:13.333Z,8.01
2022-10-19T23:29:15.956Z,7.96
2022-10-19T23:32:18.291Z,7.98
2022-10-19T23:35:20.908Z,7.95
2022-10-19T23:38:23.227Z,7.97
2022-10-19T23:41:25.816Z,7.85
2022-10-19T23:44:28.136Z,7.76
2022-10-19T23:47:30.665Z,7.69
2022-10-19T23:50:32.890Z,7.59
2022-10-19T23:53:40.015Z,7.84
2022-10-19T23:56:43.409Z,7.76
2022-10-19T23:59:46.212Z,7.71
